createdAt,value
2022-10-17T00:00:45.666Z,100098.00
2022-10-17T00:01:47.484Z,100099.41
2022-10-17T00:02:49.336Z,100109.63
2022-10-17T00:03:51.131Z,100092.56
2022-10-17T00:04:52.967Z,100107.09
2022-10-17T00:05:54.874Z,100099.63
2022-10-17T00:06:56.747Z,100105.44
2022-10-17T00:07:58.540Z,100093.59
2022-10-17T00:09:00.300Z,100113.50
2022-10-17T00:10:02.054Z,100107.47
2022-10-17T00:11:06.783Z,100106.84
2022-10-17T00:12:08.531Z,100116.41
2022-10-17T00:13:11.018Z,100111.19
2022-10-17T00:14:12.844Z,100110.19
2022-10-17T00:15:19.595Z,100104.16
2022-10-17T00:16:25.557Z,100111.19
2022-10-17T00:17:27.528Z,100113.06
2022-10-17T00:18:29.563Z,100094.69
2022-10-17T00:19:31.292Z,100118.63
2022-10-17T00:20:35.738Z,100111.31
2022-10-17T00:21:37.477Z,100102.31
2022-10-17T00:22:39.393Z,100115.19
2022-10-17T00:23:41.201Z,100124.38
2022-10-17T00:24:42.917Z,100135.00
2022-10-17T00:25:44.661Z,100109.75
2022-10-17T00:26:46.343Z,100127.84
2022-10-17T00:27:48.378Z,100126.44
2022-10-17T00:28:52.511Z,100126.16
2022-10-17T00:29:54.475Z,100145.06
2022-10-17T00:31:02.450Z,100147.13
2022-10-17T00:32:04.310Z,100149.63
2022-10-17T00:33:06.450Z,100146.31
2022-10-17T00:34:08.219Z,100154.38
2022-10-17T00:35:10.318Z,100154.53
2022-10-17T00:36:15.505Z,100136.56
2022-10-17T00:37:17.507Z,100145.56
2022-10-17T00:38:19.250Z,100157.44
2022-10-17T00:39:21.017Z,100150.50
2022-10-17T00:40:23.239Z,100160.31
2022-10-17T00:41:30.888Z,100166.91
2022-10-17T00:42:32.740Z,100163.19
2022-10-17T00:43:54.634Z,100168.84
2022-10-17T00:45:19.647Z,100168.28
2022-10-17T00:46:23.063Z,100172.19
2022-10-17T00:47:24.902Z,100159.22
2022-10-17T00:48:26.655Z,100168.59
2022-10-17T00:49:33.158Z,100173.69
2022-10-17T00:50:37.071Z,100171.00
2022-10-17T00:51:45.161Z,100172.84
2022-10-17T00:52:48.883Z,100174.50
2022-10-17T00:53:51.914Z,100174.72
2022-10-17T00:55:01.440Z,100178.41
2022-10-17T00:56:03.258Z,100175.53
2022-10-17T00:57:05.208Z,100181.94
2022-10-17T00:58:07.026Z,100175.09
2022-10-17T00:59:12.469Z,100176.09
2022-10-17T01:00:15.786Z,100181.47
2022-10-17T01:01:17.746Z,100183.31
2022-10-17T01:02:21.735Z,100182.50
2022-10-17T01:03:24.195Z,100188.72
2022-10-17T01:04:26.070Z,100174.97
2022-10-17T01:05:29.151Z,100183.69
2022-10-17T01:06:31.040Z,100175.69
2022-10-17T01:07:37.162Z,100178.53
2022-10-17T01:08:39.950Z,100189.91
2022-10-17T01:09:43.524Z,100180.34
2022-10-17T01:10:47.938Z,100188.22
2022-10-17T01:11:56.053Z,100193.59
2022-10-17T01:13:06.754Z,100193.59
2022-10-17T01:14:32.962Z,100187.31
2022-10-17T01:15:39.110Z,100195.38
2022-10-17T01:16:52.375Z,100203.84
2022-10-17T01:18:22.734Z,100199.56
2022-10-17T01:19:44.151Z,100193.28
2022-10-17T01:21:04.526Z,100204.09
2022-10-17T01:22:14.096Z,100204.31
2022-10-17T01:23:19.237Z,100205.69
2022-10-17T01:24:38.935Z,100215.44
2022-10-17T01:25:56.048Z,100215.63
2022-10-17T01:27:19.615Z,100222.00
2022-10-17T01:29:02.643Z,100225.09
2022-10-17T01:30:27.018Z,100223.16
2022-10-17T01:31:34.154Z,100227.03
2022-10-17T01:32:48.250Z,100223.84
2022-10-17T01:33:49.877Z,100228.59
2022-10-17T01:34:54.604Z,100229.28
2022-10-17T01:36:22.434Z,100232.34
2022-10-17T01:37:24.100Z,100237.03
2022-10-17T01:38:35.378Z,100243.75
2022-10-17T01:40:00.275Z,100245.63
2022-10-17T01:41:12.514Z,100244.44
2022-10-17T01:42:23.979Z,100247.31
2022-10-17T01:43:41.304Z,100261.44
2022-10-17T01:44:50.168Z,100242.94
2022-10-17T01:46:16.430Z,100246.13
2022-10-17T01:47:22.068Z,100248.31
2022-10-17T01:48:28.525Z,100253.06
2022-10-17T01:49:32.402Z,100243.34
2022-10-17T01:50:45.538Z,100256.09
2022-10-17T01:51:52.876Z,100249.59
2022-10-17T01:53:02.155Z,100261.66
2022-10-17T01:54:26.742Z,100265.47
2022-10-17T01:55:35.049Z,100268.53
2022-10-17T01:56:40.632Z,100268.72
2022-10-17T01:57:49.459Z,100269.06
2022-10-17T01:58:56.439Z,100262.19
2022-10-17T01:59:58.375Z,100276.13
2022-10-17T02:01:04.723Z,100280.19
2022-10-17T02:02:08.609Z,100284.72
2022-10-17T02:03:14.420Z,100263.47
2022-10-17T02:04:16.539Z,100290.09
2022-10-17T02:05:24.950Z,100282.22
2022-10-17T02:06:26.919Z,100289.66
2022-10-17T02:07:29.814Z,100291.84
2022-10-17T02:08:45.193Z,100301.06
2022-10-17T02:09:47.190Z,100299.03
2022-10-17T02:10:57.556Z,100301.06
2022-10-17T02:12:36.802Z,100301.19
2022-10-17T02:13:53.571Z,100300.16
2022-10-17T02:15:13.872Z,100316.31
2022-10-17T02:16:27.599Z,100306.56
2022-10-17T02:17:32.935Z,100315.81
2022-10-17T02:18:52.803Z,100312.97
2022-10-17T02:20:29.410Z,100320.84
2022-10-17T02:21:40.707Z,100319.53
2022-10-17T02:22:49.587Z,100316.19
2022-10-17T02:24:05.026Z,100330.28
2022-10-17T02:25:11.112Z,100330.47
2022-10-17T02:26:30.810Z,100339.38
2022-10-17T02:27:44.141Z,100336.84
2022-10-17T02:29:12.151Z,100341.41
2022-10-17T02:30:44.300Z,100354.78
2022-10-17T02:31:58.534Z,100352.31
2022-10-17T02:33:06.861Z,100349.28
2022-10-17T02:34:21.055Z,100358.38
2022-10-17T02:35:28.008Z,100363.94
2022-10-17T02:36:36.609Z,100367.00
2022-10-17T02:37:39.037Z,100354.63
2022-10-17T02:38:42.406Z,100378.13
2022-10-17T02:39:44.765Z,100381.81
2022-10-17T02:40:50.827Z,100374.94
2022-10-17T02:41:55.553Z,100378.47
2022-10-17T02:42:59.700Z,100376.78
2022-10-17T02:44:03.767Z,100379.28
2022-10-17T02:45:06.554Z,100382.19
2022-10-17T02:46:08.506Z,100386.91
2022-10-17T02:47:16.254Z,100385.03
2022-10-17T02:48:36.699Z,100396.09
2022-10-17T02:49:43.414Z,100398.31
2022-10-17T02:51:03.027Z,100403.34
2022-10-17T02:52:14.493Z,100393.94
2022-10-17T02:53:25.319Z,100408.72
2022-10-17T02:54:46.130Z,100406.69
2022-10-17T02:55:58.982Z,100414.75
2022-10-17T02:57:12.502Z,100417.44
2022-10-17T02:58:24.239Z,100414.81
2022-10-17T02:59:29.550Z,100422.88
2022-10-17T03:00:32.790Z,100427.72
2022-10-17T03:01:36.154Z,100428.06
2022-10-17T03:02:44.123Z,100415.84
2022-10-17T03:03:46.194Z,100444.19
2022-10-17T03:04:47.951Z,100434.66
2022-10-17T03:05:52.205Z,100446.41
2022-10-17T03:06:56.905Z,100442.88
2022-10-17T03:07:59.164Z,100434.66
2022-10-17T03:09:00.942Z,100448.44
2022-10-17T03:10:04.367Z,100446.59
2022-10-17T03:11:06.475Z,100451.47
2022-10-17T03:12:08.798Z,100437.69
2022-10-17T03:13:10.832Z,100452.13
2022-10-17T03:14:15.190Z,100459.38
2022-10-17T03:15:17.588Z,100463.72
2022-10-17T03:16:19.375Z,100461.88
2022-10-17T03:17:21.194Z,100465.91
2022-10-17T03:18:23.447Z,100466.25
2022-10-17T03:19:28.854Z,100468.78
2022-10-17T03:20:30.744Z,100473.81
2022-10-17T03:21:32.622Z,100475.50
2022-10-17T03:22:34.575Z,100471.50
2022-10-17T03:23:38.254Z,100481.69
2022-10-17T03:24:41.275Z,100470.81
2022-10-17T03:25:43.156Z,100481.69
2022-10-17T03:27:53.227Z,100493.16
2022-10-17T03:28:55.362Z,100479.56
2022-10-17T03:29:58.183Z,100488.78
2022-10-17T03:31:00.011Z,100493.31
2022-10-17T03:32:02.090Z,100494.31
2022-10-17T03:33:03.896Z,100500.53
2022-10-17T03:34:05.646Z,100494.47
2022-10-17T03:35:09.254Z,100500.72
2022-10-17T03:36:17.218Z,100499.84
2022-10-17T03:37:20.446Z,100508.59
2022-10-17T03:38:22.302Z,100518.69
2022-10-17T03:39:24.225Z,100519.53
2022-10-17T03:40:26.018Z,100521.38
2022-10-17T03:41:29.243Z,100514.84
2022-10-17T03:42:32.346Z,100515.88
2022-10-17T03:43:34.723Z,100526.75
2022-10-17T03:44:36.429Z,100538.53
2022-10-17T03:45:39.268Z,100540.38
2022-10-17T03:46:42.391Z,100548.25
2022-10-17T03:47:44.182Z,100542.75
2022-10-17T03:48:46.007Z,100546.59
2022-10-17T03:49:47.693Z,100544.91
2022-10-17T03:50:50.409Z,100551.16
2022-10-17T03:51:52.201Z,100554.66
2022-10-17T03:52:54.526Z,100561.06
2022-10-17T03:53:56.298Z,100564.75
2022-10-17T03:54:57.970Z,100578.03
2022-10-17T03:56:14.212Z,100569.78
2022-10-17T03:57:16.255Z,100560.56
2022-10-17T03:58:18.513Z,100567.13
2022-10-17T03:59:20.259Z,100584.25
2022-10-17T04:00:30.641Z,100574.69
2022-10-17T04:01:33.437Z,100579.72
2022-10-17T04:02:36.034Z,100580.72
2022-10-17T04:03:38.151Z,100573.34
2022-10-17T04:04:39.939Z,100582.56
2022-10-17T04:05:42.027Z,100580.22
2022-10-17T04:06:43.803Z,100581.91
2022-10-17T04:07:45.984Z,100586.25
2022-10-17T04:08:49.337Z,100563.44
2022-10-17T04:10:05.707Z,100590.47
2022-10-17T04:11:09.165Z,100582.56
2022-10-17T04:12:10.958Z,100587.13
2022-10-17T04:13:13.137Z,100588.94
2022-10-17T04:14:14.909Z,100590.97
2022-10-17T04:15:17.411Z,100596.34
2022-10-17T04:16:20.283Z,100605.28
2022-10-17T04:17:37.235Z,100613.34
2022-10-17T04:18:41.490Z,100613.16
2022-10-17T04:19:43.207Z,100597.72
2022-10-17T04:20:44.907Z,100622.22
2022-10-17T04:21:47.076Z,100624.09
2022-10-17T04:22:49.770Z,100631.31
2022-10-17T04:23:59.179Z,100633.19
2022-10-17T04:25:27.382Z,100629.63
2022-10-17T04:26:29.223Z,100630.97
2022-10-17T04:27:31.233Z,100636.53
2022-10-17T04:28:33.967Z,100642.06
2022-10-17T04:29:35.820Z,100639.38
2022-10-17T04:30:59.993Z,100636.34
2022-10-17T04:32:07.627Z,100642.91
2022-10-17T04:33:22.123Z,100644.25
2022-10-17T04:34:23.857Z,100649.78
2022-10-17T04:35:25.853Z,100644.63
2022-10-17T04:36:35.374Z,100658.88
2022-10-17T04:37:37.492Z,100666.25
2022-10-17T04:38:47.834Z,100665.25
2022-10-17T04:39:49.665Z,100669.47
2022-10-17T04:40:51.651Z,100679.03
2022-10-17T04:41:53.918Z,100673.00
2022-10-17T04:42:55.694Z,100683.75
2022-10-17T04:44:05.426Z,100683.41
2022-10-17T04:45:10.996Z,100683.41
2022-10-17T04:46:14.953Z,100683.75
2022-10-17T04:47:16.808Z,100686.28
2022-10-17T04:48:19.161Z,100690.00
2022-10-17T04:49:21.058Z,100683.94
2022-10-17T04:50:26.956Z,100686.63
2022-10-17T04:52:04.166Z,100697.84
2022-10-17T04:53:12.415Z,100695.50
2022-10-17T04:54:14.181Z,100704.91
2022-10-17T04:55:18.241Z,100700.56
2022-10-17T04:56:22.187Z,100701.75
2022-10-17T04:57:25.057Z,100710.63
2022-10-17T04:58:43.372Z,100711.16
2022-10-17T04:59:45.187Z,100715.88
2022-10-17T05:01:17.001Z,100718.88
2022-10-17T05:02:23.474Z,100709.97
2022-10-17T05:03:25.970Z,100674.53
2022-10-17T05:04:27.684Z,100707.28
2022-10-17T05:05:29.570Z,100709.50
2022-10-17T05:06:33.170Z,100714.34
2022-10-17T05:07:53.356Z,100722.75
2022-10-17T05:08:59.033Z,100711.84
2022-10-17T05:10:01.158Z,100718.38
2022-10-17T05:11:05.994Z,100726.44
2022-10-17T05:12:10.228Z,100727.28
2022-10-17T05:13:14.947Z,100731.47
2022-10-17T05:14:16.894Z,100733.16
2022-10-17T05:15:18.687Z,100743.75
2022-10-17T05:16:21.522Z,100736.34
2022-10-17T05:17:24.168Z,100741.41
2022-10-17T05:18:26.024Z,100742.94
2022-10-17T05:19:27.806Z,100743.41
2022-10-17T05:20:29.603Z,100732.16
2022-10-17T05:22:42.098Z,100744.75
2022-10-17T05:23:45.855Z,100758.56
2022-10-17T05:24:47.703Z,100761.59
2022-10-17T05:25:54.775Z,100768.78
2022-10-17T05:26:59.079Z,100769.81
2022-10-17T05:28:00.806Z,100777.53
2022-10-17T05:29:03.405Z,100779.06
2022-10-17T05:30:08.394Z,100781.25
2022-10-17T05:31:11.677Z,100755.84
2022-10-17T05:32:14.754Z,100771.16
2022-10-17T05:33:16.569Z,100757.53
2022-10-17T05:34:18.359Z,100776.19
2022-10-17T05:35:20.659Z,100763.72
2022-10-17T05:36:22.725Z,100774.81
2022-10-17T05:37:24.462Z,100780.53
2022-10-17T05:38:29.261Z,100782.88
2022-10-17T05:39:31.539Z,100783.53
2022-10-17T05:40:34.676Z,100786.56
2022-10-17T05:41:37.547Z,100790.56
2022-10-17T05:43:43.839Z,100799.84
2022-10-17T05:44:48.071Z,100798.00
2022-10-17T05:45:52.607Z,100811.78
2022-10-17T05:46:55.760Z,100813.47
2022-10-17T05:47:57.679Z,100823.88
2022-10-17T05:48:59.865Z,100813.47
2022-10-17T05:50:01.810Z,100830.59
2022-10-17T05:51:12.710Z,100834.63
2022-10-17T05:52:17.382Z,100834.28
2022-10-17T05:53:40.687Z,100846.25
2022-10-17T05:54:46.337Z,100841.22
2022-10-17T05:55:56.050Z,100829.75
2022-10-17T05:56:58.354Z,100847.09
2022-10-17T05:58:04.983Z,100842.22
2022-10-17T05:59:11.075Z,100844.72
2022-10-17T06:00:22.421Z,100831.94
2022-10-17T06:01:30.973Z,100854.31
2022-10-17T06:02:33.312Z,100856.00
2022-10-17T06:03:35.391Z,100858.50
2022-10-17T06:04:45.583Z,100855.81
2022-10-17T06:05:48.502Z,100858.34
2022-10-17T06:06:50.539Z,100855.66
2022-10-17T06:07:58.235Z,100849.94
2022-10-17T06:09:04.228Z,100848.22
2022-10-17T06:10:13.087Z,100850.75
2022-10-17T06:11:14.878Z,100849.06
2022-10-17T06:12:16.683Z,100858.66
2022-10-17T06:13:19.391Z,100861.19
2022-10-17T06:14:24.890Z,100857.28
2022-10-17T06:15:30.706Z,100853.75
2022-10-17T06:16:37.251Z,100872.09
2022-10-17T06:17:39.300Z,100876.66
2022-10-17T06:18:41.056Z,100875.66
2022-10-17T06:19:44.737Z,100849.41
2022-10-17T06:20:48.370Z,100874.63
2022-10-17T06:21:52.145Z,100883.38
2022-10-17T06:22:56.751Z,100884.03
2022-10-17T06:24:12.234Z,100884.72
2022-10-17T06:25:16.355Z,100886.38
2022-10-17T06:26:18.166Z,100891.78
2022-10-17T06:27:21.221Z,100888.22
2022-10-17T06:28:23.161Z,100894.47
2022-10-17T06:29:24.930Z,100892.81
2022-10-17T06:30:27.310Z,100883.69
2022-10-17T06:31:29.495Z,100897.16
2022-10-17T06:32:31.674Z,100889.59
2022-10-17T06:33:34.647Z,100886.91
2022-10-17T06:34:37.335Z,100906.78
2022-10-17T06:35:39.146Z,100911.97
2022-10-17T06:36:40.871Z,100909.28
2022-10-17T06:37:43.667Z,100881.06
2022-10-17T06:38:45.490Z,100904.25
2022-10-17T06:39:56.750Z,100918.91
2022-10-17T06:41:25.406Z,100917.34
2022-10-17T06:42:29.346Z,100913.63
2022-10-17T06:43:51.367Z,100922.38
2022-10-17T06:45:19.039Z,100939.22
2022-10-17T06:46:43.763Z,100931.13
2022-10-17T06:47:49.974Z,100940.44
2022-10-17T06:49:07.860Z,100935.19
2022-10-17T06:50:32.078Z,100951.88
2022-10-17T06:51:46.159Z,100940.13
2022-10-17T06:52:52.704Z,100922.81
2022-10-17T06:54:23.603Z,100960.78
2022-10-17T06:56:03.844Z,100970.22
2022-10-17T06:57:24.147Z,100967.41
2022-10-17T06:58:39.101Z,100977.16
2022-10-17T07:00:01.094Z,100980.69
2022-10-17T07:01:12.153Z,100985.41
2022-10-17T07:02:14.858Z,100988.31
2022-10-17T07:03:18.043Z,100976.00
2022-10-17T07:04:19.750Z,100977.19
2022-10-17T07:05:21.531Z,100980.72
2022-10-17T07:06:24.737Z,100986.31
2022-10-17T07:07:27.468Z,100982.09
2022-10-17T07:08:29.876Z,100974.69
2022-10-17T07:09:32.992Z,100992.53
2022-10-17T07:10:39.538Z,100995.22
2022-10-17T07:11:42.652Z,100995.88
2022-10-17T07:12:45.877Z,100992.72
2022-10-17T07:13:48.423Z,100975.69
2022-10-17T07:14:50.733Z,100998.78
2022-10-17T07:15:52.717Z,100997.91
2022-10-17T07:16:54.899Z,100998.78
2022-10-17T07:17:58.936Z,101005.84
2022-10-17T07:19:00.838Z,101007.69
2022-10-17T07:20:09.288Z,101019.13
2022-10-17T07:21:12.555Z,101018.31
2022-10-17T07:22:15.363Z,101000.78
2022-10-17T07:23:22.550Z,101021.84
2022-10-17T07:24:24.256Z,101016.78
2022-10-17T07:26:01.580Z,101024.84
2022-10-17T07:27:04.974Z,101022.16
2022-10-17T07:28:06.795Z,101021.50
2022-10-17T07:29:09.656Z,101025.38
2022-10-17T07:30:19.422Z,101021.69
2022-10-17T07:31:32.126Z,101026.06
2022-10-17T07:32:33.814Z,101034.31
2022-10-17T07:33:36.394Z,101038.88
2022-10-17T07:34:38.193Z,101037.34
2022-10-17T07:35:41.309Z,101039.22
2022-10-17T07:36:43.361Z,101046.28
2022-10-17T07:37:45.901Z,101051.69
2022-10-17T07:38:49.612Z,101042.25
2022-10-17T07:39:52.716Z,101050.81
2022-10-17T07:40:59.283Z,101056.22
2022-10-17T07:42:00.998Z,101055.19
2022-10-17T07:43:03.850Z,101051.69
2022-10-17T07:44:06.275Z,101055.19
2022-10-17T07:45:12.696Z,101056.06
2022-10-17T07:46:14.931Z,101056.22
2022-10-17T07:47:16.739Z,101056.22
2022-10-17T07:48:20.898Z,101062.63
2022-10-17T07:49:23.555Z,101067.00
2022-10-17T07:50:25.715Z,101060.78
2022-10-17T07:51:27.995Z,101069.69
2022-10-17T07:52:29.934Z,101068.69
2022-10-17T07:53:31.975Z,101075.09
2022-10-17T07:54:33.639Z,101073.25
2022-10-17T07:55:38.049Z,101077.78
2022-10-17T07:56:40.204Z,101066.69
2022-10-17T07:57:42.087Z,101077.13
2022-10-17T07:58:43.892Z,101087.75
2022-10-17T07:59:45.599Z,101083.19
2022-10-17T08:00:51.190Z,101088.56
2022-10-17T08:01:56.016Z,101098.53
2022-10-17T08:02:57.783Z,101092.63
2022-10-17T08:03:59.554Z,101106.44
2022-10-17T08:05:01.243Z,101113.69
2022-10-17T08:06:03.950Z,101114.72
2022-10-17T08:07:19.560Z,101120.94
2022-10-17T08:08:22.672Z,101115.19
2022-10-17T08:09:24.363Z,101117.91
2022-10-17T08:10:27.826Z,101122.63
2022-10-17T08:11:29.608Z,101139.66
2022-10-17T08:12:34.353Z,101116.91
2022-10-17T08:13:37.163Z,101129.03
2022-10-17T08:14:39.906Z,101133.41
2022-10-17T08:15:41.615Z,101135.28
2022-10-17T08:16:43.831Z,101131.72
2022-10-17T08:17:45.587Z,101130.88
2022-10-17T08:18:47.330Z,101132.72
2022-10-17T08:19:49.117Z,101137.28
2022-10-17T08:20:51.090Z,101134.59
2022-10-17T08:21:54.463Z,101140.00
2022-10-17T08:22:56.212Z,101147.06
2022-10-17T08:23:58.051Z,101136.09
2022-10-17T08:24:59.813Z,101158.69
2022-10-17T08:26:03.462Z,101155.16
2022-10-17T08:27:11.514Z,101154.16
2022-10-17T08:28:13.417Z,101149.44
2022-10-17T08:29:16.789Z,101152.28
2022-10-17T08:30:18.541Z,101154.16
2022-10-17T08:31:20.950Z,101145.03
2022-10-17T08:32:25.987Z,101161.38
2022-10-17T08:33:27.742Z,101160.38
2022-10-17T08:34:29.641Z,101161.38
2022-10-17T08:35:31.414Z,101175.72
2022-10-17T08:36:33.231Z,101169.81
2022-10-17T08:37:34.968Z,101175.72
2022-10-17T08:38:38.491Z,101164.09
2022-10-17T08:39:43.783Z,101183.63
2022-10-17T08:40:49.575Z,101181.94
2022-10-17T08:42:17.986Z,101173.69
2022-10-17T08:43:35.590Z,101166.63
2022-10-17T08:44:53.630Z,101185.97
2022-10-17T08:46:00.552Z,101162.38
2022-10-17T08:47:06.563Z,101187.50
2022-10-17T08:48:14.842Z,101188.69
2022-10-17T08:49:24.470Z,101193.06
2022-10-17T08:50:48.299Z,101187.50
2022-10-17T08:51:56.277Z,101187.31
2022-10-17T08:53:04.067Z,101180.44
2022-10-17T08:54:16.653Z,101181.25
2022-10-17T08:55:28.935Z,101143.69
2022-10-17T08:56:49.054Z,101172.50
2022-10-17T08:57:51.171Z,101196.28
2022-10-17T08:58:53.529Z,101170.81
2022-10-17T08:59:55.506Z,101199.31
2022-10-17T09:01:22.688Z,101210.25
2022-10-17T09:02:38.299Z,101217.00
2022-10-17T09:03:58.599Z,101215.50
2022-10-17T09:05:37.290Z,101203.84
2022-10-17T09:07:14.360Z,101204.88
2022-10-17T09:08:28.163Z,101215.16
2022-10-17T09:09:44.790Z,101214.63
2022-10-17T09:11:02.566Z,101221.03
2022-10-17T09:12:16.968Z,101219.34
2022-10-17T09:13:30.918Z,101222.38
2022-10-17T09:15:11.694Z,101226.44
2022-10-17T09:16:42.222Z,101237.94
2022-10-17T09:17:55.136Z,101224.44
2022-10-17T09:18:59.420Z,101223.06
2022-10-17T09:20:12.598Z,101234.19
2022-10-17T09:21:46.073Z,101223.72
2022-10-17T09:22:51.900Z,101218.34
2022-10-17T09:24:09.481Z,101220.38
2022-10-17T09:25:20.914Z,101226.63
2022-10-17T09:26:23.403Z,101233.84
2022-10-17T09:27:32.811Z,101237.06
2022-10-17T09:28:40.284Z,101244.97
2022-10-17T09:29:44.950Z,101248.53
2022-10-17T09:30:55.736Z,101250.69
2022-10-17T09:32:21.239Z,101252.38
2022-10-17T09:33:35.237Z,101261.34
2022-10-17T09:34:55.134Z,101261.19
2022-10-17T09:35:59.512Z,101252.56
2022-10-17T09:37:02.511Z,101247.53
2022-10-17T09:38:05.098Z,101250.22
2022-10-17T09:39:18.879Z,101249.34
2022-10-17T09:40:33.738Z,101246.16
2022-10-17T09:41:47.300Z,101249.88
2022-10-17T09:42:51.295Z,101249.69
2022-10-17T09:43:56.753Z,101250.88
2022-10-17T09:45:01.373Z,101252.06
2022-10-17T09:46:13.125Z,101257.09
2022-10-17T09:47:20.847Z,101268.56
2022-10-17T09:48:48.746Z,101260.00
2022-10-17T09:49:53.784Z,101254.59
2022-10-17T09:51:08.302Z,101251.56
2022-10-17T09:52:22.427Z,101255.47
2022-10-17T09:53:33.595Z,101261.88
2022-10-17T09:54:44.126Z,101244.47
2022-10-17T09:55:49.489Z,101257.47
2022-10-17T09:57:01.793Z,101257.47
2022-10-17T09:58:06.126Z,101242.31
2022-10-17T09:59:13.802Z,101251.41
2022-10-17T10:00:26.004Z,101245.16
2022-10-17T10:01:30.774Z,101247.69
2022-10-17T10:02:36.489Z,101250.41
2022-10-17T10:03:38.256Z,101252.56
2022-10-17T10:05:24.821Z,101266.25
2022-10-17T10:06:26.555Z,101254.94
2022-10-17T10:07:30.935Z,101259.84
2022-10-17T10:08:36.273Z,101262.19
2022-10-17T10:09:39.651Z,101261.00
2022-10-17T10:10:43.395Z,101272.81
2022-10-17T10:11:55.370Z,101270.28
2022-10-17T10:13:15.815Z,101265.91
2022-10-17T10:14:29.417Z,101256.63
2022-10-17T10:15:37.958Z,101272.31
2022-10-17T10:16:47.847Z,101262.53
2022-10-17T10:17:49.649Z,101266.25
2022-10-17T10:18:52.255Z,101270.78
2022-10-17T10:19:54.810Z,101267.75
2022-10-17T10:21:16.532Z,101262.69
2022-10-17T10:22:20.506Z,101260.00
2022-10-17T10:23:22.727Z,101266.25
2022-10-17T10:24:30.627Z,101275.34
2022-10-17T10:25:33.385Z,101268.94
2022-10-17T10:26:40.272Z,101274.50
2022-10-17T10:27:46.511Z,101261.88
2022-10-17T10:29:02.258Z,101254.09
2022-10-17T10:30:04.968Z,101260.50
2022-10-17T10:31:08.654Z,101267.06
2022-10-17T10:32:21.078Z,101259.81
2022-10-17T10:33:27.052Z,101273.16
2022-10-17T10:34:31.495Z,101283.09
2022-10-17T10:35:35.911Z,101285.13
2022-10-17T10:37:18.654Z,101285.84
2022-10-17T10:38:21.123Z,101278.88
2022-10-17T10:39:37.827Z,101293.22
2022-10-17T10:40:47.497Z,101299.63
2022-10-17T10:41:49.282Z,101296.25
2022-10-17T10:42:54.015Z,101292.88
2022-10-17T10:43:56.587Z,101285.63
2022-10-17T10:45:04.145Z,101279.56
2022-10-17T10:46:17.959Z,101274.34
2022-10-17T10:47:21.148Z,101287.16
2022-10-17T10:48:44.684Z,101291.88
2022-10-17T10:49:46.810Z,101301.31
2022-10-17T10:51:06.026Z,101294.22
2022-10-17T10:52:10.405Z,101291.34
2022-10-17T10:53:39.982Z,101289.50
2022-10-17T10:55:03.044Z,101290.91
2022-10-17T10:56:19.860Z,101290.72
2022-10-17T10:57:25.780Z,101284.81
2022-10-17T10:58:40.307Z,101286.81
2022-10-17T10:59:58.429Z,101290.22
2022-10-17T11:01:05.366Z,101280.91
2022-10-17T11:02:36.810Z,101283.44
2022-10-17T11:03:54.909Z,101287.19
2022-10-17T11:05:36.747Z,101296.63
2022-10-17T11:06:42.206Z,101301.19
2022-10-17T11:08:06.732Z,101297.63
2022-10-17T11:09:20.182Z,101289.03
2022-10-17T11:10:49.530Z,101293.94
2022-10-17T11:12:00.231Z,101293.25
2022-10-17T11:13:11.435Z,101294.28
2022-10-17T11:14:28.785Z,101295.44
2022-10-17T11:15:51.725Z,101304.06
2022-10-17T11:17:06.024Z,101304.06
2022-10-17T11:18:16.400Z,101300.69
2022-10-17T11:19:28.604Z,101295.28
2022-10-17T11:20:59.867Z,101297.63
2022-10-17T11:22:30.903Z,101299.31
2022-10-17T11:23:40.738Z,101298.31
2022-10-17T11:24:57.345Z,101293.25
2022-10-17T11:26:02.576Z,101299.47
2022-10-17T11:27:06.048Z,101295.28
2022-10-17T11:28:18.210Z,101302.69
2022-10-17T11:29:20.287Z,101299.81
2022-10-17T11:30:27.056Z,101310.94
2022-10-17T11:31:40.077Z,101299.63
2022-10-17T11:32:47.679Z,101312.47
2022-10-17T11:34:20.252Z,101303.72
2022-10-17T11:35:38.061Z,101315.19
2022-10-17T11:36:44.307Z,101314.50
2022-10-17T11:38:03.294Z,101318.22
2022-10-17T11:39:12.123Z,101315.50
2022-10-17T11:40:36.302Z,101300.34
2022-10-17T11:41:41.314Z,101314.50
2022-10-17T11:43:05.350Z,101313.69
2022-10-17T11:44:20.217Z,101316.88
2022-10-17T11:45:26.484Z,101312.81
2022-10-17T11:46:29.506Z,101309.09
2022-10-17T11:47:54.295Z,101305.88
2022-10-17T11:49:20.495Z,101299.19
2022-10-17T11:52:03.129Z,101297.81
2022-10-17T11:53:22.163Z,101283.47
2022-10-17T11:54:43.813Z,101299.31
2022-10-17T11:55:46.740Z,101258.97
2022-10-17T11:57:14.787Z,101287.84
2022-10-17T11:58:22.671Z,101294.94
2022-10-17T11:59:48.503Z,101295.28
2022-10-17T12:00:52.928Z,101300.34
2022-10-17T12:02:05.498Z,101293.25
2022-10-17T12:03:25.102Z,101302.38
2022-10-17T12:04:39.257Z,101304.91
2022-10-17T12:06:00.477Z,101305.59
2022-10-17T12:07:38.293Z,101316.19
2022-10-17T12:09:19.033Z,101303.03
2022-10-17T12:10:39.514Z,101316.19
2022-10-17T12:11:50.898Z,101316.88
2022-10-17T12:12:52.649Z,101308.78
2022-10-17T12:13:56.471Z,101316.72
2022-10-17T12:15:23.890Z,101316.53
2022-10-17T12:16:25.557Z,101319.06
2022-10-17T12:17:32.991Z,101324.13
2022-10-17T12:19:37.759Z,101316.19
2022-10-17T12:20:40.218Z,101316.19
2022-10-17T12:22:06.354Z,101274.16
2022-10-17T12:23:10.783Z,101323.78
2022-10-17T12:24:41.578Z,101316.88
2022-10-17T12:26:01.658Z,101316.19
2022-10-17T12:27:45.907Z,101317.38
2022-10-17T12:28:48.455Z,101319.91
2022-10-17T12:29:50.921Z,101322.25
2022-10-17T12:30:54.730Z,101313.84
2022-10-17T12:32:13.264Z,101308.78
2022-10-17T12:33:22.443Z,101320.56
2022-10-17T12:34:24.626Z,101314.50
2022-10-17T12:35:28.587Z,101320.91
2022-10-17T12:36:30.250Z,101316.03
2022-10-17T12:37:57.338Z,101331.72
2022-10-17T12:39:03.176Z,101321.44
2022-10-17T12:40:36.532Z,101325.63
2022-10-17T12:41:38.269Z,101329.00
2022-10-17T12:42:48.612Z,101322.25
2022-10-17T12:43:54.827Z,101322.25
2022-10-17T12:44:56.695Z,101311.31
2022-10-17T12:46:02.817Z,101318.06
2022-10-17T12:47:10.642Z,101323.47
2022-10-17T12:48:12.567Z,101324.28
2022-10-17T12:49:24.428Z,101326.16
2022-10-17T12:51:30.836Z,101324.47
2022-10-17T12:52:32.151Z,101327.34
2022-10-17T12:54:08.970Z,101324.81
2022-10-17T12:55:18.088Z,101328.38
2022-10-17T12:56:22.451Z,101332.38
2022-10-17T12:57:33.205Z,101336.09
2022-10-17T12:58:35.936Z,101331.72
2022-10-17T12:59:37.636Z,101334.75
2022-10-17T13:01:05.224Z,101327.00
2022-10-17T13:02:19.124Z,101336.94
2022-10-17T13:03:26.946Z,101334.41
2022-10-17T13:04:30.672Z,101338.97
2022-10-17T13:05:36.134Z,101323.13
2022-10-17T13:06:44.983Z,101339.31